createdAt,value
2023-05-09T00:01:21.062Z,67.49
2023-05-09T00:05:30.131Z,67.68
2023-05-09T00:09:38.023Z,68.05
2023-05-09T00:13:45.337Z,68.00
2023-05-09T00:17:53.790Z,68.11
2023-05-09T00:22:01.849Z,68.04
2023-05-09T00:26:11.235Z,68.52
2023-05-09T00:30:23.885Z,68.64
2023-05-09T00:34:31.273Z,68.58
2023-05-09T00:38:38.722Z,68.40
2023-05-09T00:42:46.766Z,68.86
2023-05-09T00:46:54.559Z,68.88
2023-05-09T00:51:02.650Z,69.25
2023-05-09T00:55:11.859Z,69.09
2023-05-09T00:59:20.323Z,69.19
2023-05-09T01:03:27.963Z,69.48
2023-05-09T01:07:43.796Z,69.37
2023-05-09T01:11:57.396Z,69.44
2023-05-09T01:16:10.974Z,69.56
2023-05-09T01:20:25.191Z,70.18
2023-05-09T01:24:58.275Z,69.89
2023-05-09T01:29:31.894Z,70.06
2023-05-09T01:33:41.836Z,70.21
2023-05-09T01:37:52.338Z,69.94
2023-05-09T01:42:02.582Z,69.90
2023-05-09T01:46:11.457Z,70.08
2023-05-09T01:50:20.844Z,70.48
2023-05-09T01:54:28.653Z,70.09
2023-05-09T01:58:38.401Z,70.25
2023-05-09T02:02:46.887Z,70.37
2023-05-09T02:06:57.065Z,70.41
2023-05-09T02:11:04.745Z,70.40
2023-05-09T02:15:15.016Z,70.58
2023-05-09T02:19:23.387Z,70.92
2023-05-09T02:23:30.948Z,70.95
2023-05-09T02:27:39.133Z,71.14
2023-05-09T02:31:49.319Z,70.96
2023-05-09T02:35:57.450Z,71.07
2023-05-09T02:40:05.799Z,71.22
2023-05-09T02:44:14.544Z,71.26
2023-05-09T02:48:22.792Z,71.69
2023-05-09T02:52:31.630Z,71.57
2023-05-09T02:56:39.857Z,72.20
2023-05-09T03:00:47.657Z,72.31
2023-05-09T03:04:56.718Z,72.32
2023-05-09T03:09:04.631Z,72.71
2023-05-09T03:13:13.225Z,72.38
2023-05-09T03:17:23.449Z,72.13
2023-05-09T03:21:32.107Z,71.91
2023-05-09T03:25:39.613Z,72.33
2023-05-09T03:29:47.717Z,72.78
2023-05-09T03:33:55.410Z,72.27
2023-05-09T03:38:03.143Z,72.75
2023-05-09T03:42:12.328Z,72.85
2023-05-09T03:46:20.208Z,73.34
2023-05-09T03:50:28.576Z,73.53
2023-05-09T03:54:36.686Z,73.50
2023-05-09T03:58:44.691Z,74.03
2023-05-09T04:02:52.739Z,74.13
2023-05-09T04:07:00.527Z,73.80
2023-05-09T04:11:08.682Z,74.11
2023-05-09T04:15:16.990Z,74.12
2023-05-09T04:19:26.401Z,74.73
2023-05-09T04:23:34.301Z,74.54
2023-05-09T04:27:41.880Z,75.03
2023-05-09T04:31:50.093Z,74.91
2023-05-09T04:35:58.626Z,75.19
2023-05-09T04:40:09.196Z,75.11
2023-05-09T04:44:17.756Z,74.90
2023-05-09T04:48:25.310Z,74.88
2023-05-09T04:52:33.665Z,75.32
2023-05-09T04:56:41.100Z,74.93
2023-05-09T05:00:51.357Z,74.89
2023-05-09T05:05:10.808Z,75.09
2023-05-09T05:09:20.152Z,75.30
2023-05-09T05:13:27.960Z,75.48
2023-05-09T05:17:37.008Z,75.18
2023-05-09T05:21:44.595Z,74.71
2023-05-09T05:25:52.657Z,73.93
2023-05-09T05:30:02.355Z,73.20
2023-05-09T05:34:10.307Z,72.33
2023-05-09T05:38:17.979Z,72.09
2023-05-09T05:42:25.907Z,71.79
2023-05-09T05:46:34.588Z,71.36
2023-05-09T05:50:42.558Z,71.46
2023-05-09T05:54:50.715Z,71.04
2023-05-09T05:58:58.611Z,70.48
2023-05-09T06:03:06.917Z,69.77
2023-05-09T06:07:16.035Z,69.03
2023-05-09T06:11:23.640Z,67.90
2023-05-09T06:15:32.038Z,67.10
2023-05-09T06:19:40.497Z,66.92
2023-05-09T06:24:05.891Z,66.19
2023-05-09T06:28:17.072Z,65.38
2023-05-09T06:32:25.153Z,65.71
2023-05-09T06:36:33.611Z,66.06
2023-05-09T06:40:42.197Z,65.19
2023-05-09T06:44:50.201Z,64.90
2023-05-09T06:48:59.042Z,63.83
2023-05-09T06:53:06.788Z,63.92
2023-05-09T06:57:16.247Z,64.34
2023-05-09T07:01:24.129Z,62.49
2023-05-09T07:05:32.012Z,62.14
2023-05-09T07:09:39.973Z,60.91
2023-05-09T07:13:47.509Z,59.92
2023-05-09T07:17:56.095Z,60.12
2023-05-09T07:22:03.806Z,59.62
2023-05-09T07:26:12.186Z,58.64
2023-05-09T07:30:20.155Z,58.12
2023-05-09T07:34:27.823Z,58.59
2023-05-09T07:38:37.531Z,58.82
2023-05-09T07:42:50.007Z,59.07
2023-05-09T07:46:59.431Z,58.51
2023-05-09T07:51:07.139Z,57.52
2023-05-09T07:55:14.920Z,57.36
2023-05-09T07:59:23.522Z,56.53
2023-05-09T08:03:32.424Z,56.38
2023-05-09T08:07:40.726Z,56.31
2023-05-09T08:11:48.507Z,55.74
2023-05-09T08:15:56.875Z,55.73
2023-05-09T08:20:06.241Z,54.69
2023-05-09T08:24:14.843Z,54.44
2023-05-09T08:28:24.297Z,52.95
2023-05-09T08:32:32.527Z,52.36
2023-05-09T08:36:41.473Z,52.16
2023-05-09T08:40:49.700Z,52.28
2023-05-09T08:44:57.762Z,51.58
2023-05-09T08:49:08.352Z,51.33
2023-05-09T08:53:16.902Z,51.43
2023-05-09T08:57:25.164Z,51.46
2023-05-09T09:01:33.532Z,51.33
2023-05-09T09:05:43.706Z,50.56
2023-05-09T09:09:52.180Z,50.70
2023-05-09T09:14:04.118Z,51.15
2023-05-09T09:18:13.721Z,49.24
2023-05-09T09:22:22.970Z,49.49
2023-05-09T09:26:32.146Z,49.42
2023-05-09T09:30:47.700Z,49.68
2023-05-09T09:35:08.195Z,48.88
2023-05-09T09:39:16.605Z,48.52
2023-05-09T09:43:31.806Z,47.76
2023-05-09T09:47:40.021Z,49.37
2023-05-09T09:51:48.400Z,48.00
2023-05-09T09:55:56.076Z,47.80
2023-05-09T10:00:06.453Z,48.42
2023-05-09T10:04:19.112Z,47.76
2023-05-09T10:08:28.744Z,47.77
2023-05-09T10:12:40.021Z,47.37
2023-05-09T10:16:48.138Z,46.78
2023-05-09T10:20:57.307Z,47.25
2023-05-09T10:25:13.274Z,46.73
2023-05-09T10:29:23.163Z,46.87
2023-05-09T10:33:39.680Z,45.36
2023-05-09T10:37:48.000Z,44.14
2023-05-09T10:41:55.386Z,45.29
2023-05-09T10:46:04.098Z,43.77
2023-05-09T10:50:14.183Z,45.39
2023-05-09T10:54:32.594Z,44.21
2023-05-09T10:58:42.183Z,43.97
2023-05-09T11:03:09.305Z,44.34
2023-05-09T11:07:30.566Z,43.42
2023-05-09T11:11:54.352Z,42.64
2023-05-09T11:16:16.249Z,41.96
2023-05-09T11:20:31.344Z,42.10
2023-05-09T11:24:41.594Z,41.14
2023-05-09T11:28:56.904Z,40.54
2023-05-09T11:33:06.847Z,40.16
2023-05-09T11:37:16.120Z,40.87
2023-05-09T11:41:23.989Z,41.22
2023-05-09T11:45:34.002Z,41.49
2023-05-09T11:49:42.022Z,40.44
2023-05-09T11:53:54.292Z,40.62
2023-05-09T11:58:02.670Z,39.37
2023-05-09T12:02:10.594Z,37.85
2023-05-09T12:06:23.018Z,37.21
2023-05-09T12:10:30.519Z,37.78
2023-05-09T12:14:39.367Z,38.45
2023-05-09T12:18:51.906Z,37.31
2023-05-09T12:22:59.701Z,37.67
2023-05-09T12:27:08.463Z,36.72
2023-05-09T12:31:17.973Z,36.14
2023-05-09T12:35:26.614Z,35.11
2023-05-09T12:39:34.033Z,35.61
2023-05-09T12:43:44.053Z,36.71
2023-05-09T12:47:59.101Z,36.47
2023-05-09T12:52:09.748Z,35.47
2023-05-09T12:56:19.092Z,35.50
2023-05-09T13:00:27.603Z,35.62
2023-05-09T13:04:39.305Z,35.29
2023-05-09T13:08:58.644Z,34.55
2023-05-09T13:13:07.560Z,34.27
2023-05-09T13:17:16.032Z,35.32
2023-05-09T13:21:27.006Z,35.16
2023-05-09T13:25:34.461Z,35.49
2023-05-09T13:29:42.983Z,35.02
2023-05-09T13:33:51.873Z,35.15
2023-05-09T13:38:01.268Z,34.01
2023-05-09T13:42:09.310Z,34.88
2023-05-09T13:46:18.066Z,35.00
2023-05-09T13:50:27.639Z,35.10
2023-05-09T13:54:35.598Z,35.89
2023-05-09T13:58:43.628Z,35.95
2023-05-09T14:02:51.470Z,35.70
2023-05-09T14:07:00.208Z,36.36
2023-05-09T14:11:09.570Z,36.67
2023-05-09T14:15:17.674Z,36.22
2023-05-09T14:19:27.270Z,36.49
2023-05-09T14:23:34.649Z,36.47
2023-05-09T14:27:42.368Z,35.88
2023-05-09T14:31:49.953Z,36.02
2023-05-09T14:36:01.432Z,36.66
2023-05-09T14:40:11.942Z,36.26
2023-05-09T14:44:19.659Z,36.55
2023-05-09T14:48:27.757Z,36.88
2023-05-09T14:52:37.391Z,36.97
2023-05-09T14:56:45.126Z,37.18
2023-05-09T15:00:53.548Z,36.50
2023-05-09T15:05:01.652Z,36.92
2023-05-09T15:09:10.353Z,36.41
2023-05-09T15:13:19.149Z,36.79
2023-05-09T15:17:27.875Z,37.44
2023-05-09T15:21:35.877Z,37.47
2023-05-09T15:25:46.399Z,37.44
2023-05-09T15:29:55.070Z,38.59
2023-05-09T15:34:03.065Z,37.76
2023-05-09T15:38:12.243Z,37.69
2023-05-09T15:42:21.069Z,37.26
2023-05-09T15:46:28.987Z,38.10
2023-05-09T15:50:36.768Z,38.80
2023-05-09T15:54:45.396Z,37.65
2023-05-09T15:58:53.456Z,38.04
2023-05-09T16:03:05.050Z,38.13
2023-05-09T16:07:13.850Z,38.55
2023-05-09T16:11:22.226Z,38.80
2023-05-09T16:15:30.076Z,39.19
2023-05-09T16:19:38.269Z,39.33
2023-05-09T16:23:48.463Z,38.36
2023-05-09T16:27:58.114Z,38.54
2023-05-09T16:32:08.025Z,39.07
2023-05-09T16:36:17.169Z,39.10
2023-05-09T16:40:25.404Z,39.19
2023-05-09T16:44:33.519Z,39.54
2023-05-09T16:48:41.070Z,39.84
2023-05-09T16:52:50.228Z,40.00
2023-05-09T16:56:57.975Z,39.95
2023-05-09T17:01:06.775Z,39.50
2023-05-09T17:05:14.525Z,39.13
2023-05-09T17:09:22.858Z,39.41
2023-05-09T17:13:30.816Z,39.81
2023-05-09T17:17:39.231Z,40.13
2023-05-09T17:21:47.143Z,40.58
2023-05-09T17:25:55.385Z,40.62
2023-05-09T17:30:03.397Z,40.77
2023-05-09T17:34:11.814Z,40.98
2023-05-09T17:38:19.794Z,41.20
2023-05-09T17:42:27.591Z,41.64
2023-05-09T17:46:38.452Z,41.85
2023-05-09T17:50:47.697Z,42.25
2023-05-09T17:54:55.844Z,42.99
2023-05-09T17:59:04.320Z,43.18
2023-05-09T18:03:13.094Z,43.41
2023-05-09T18:07:21.238Z,43.88
2023-05-09T18:11:29.989Z,44.16
2023-05-09T18:15:38.592Z,44.39
2023-05-09T18:19:46.798Z,44.78
2023-05-09T18:23:55.057Z,45.03
2023-05-09T18:28:03.020Z,45.32
2023-05-09T18:32:15.983Z,45.49
2023-05-09T18:36:23.689Z,46.24
2023-05-09T18:40:32.713Z,46.21
2023-05-09T18:44:40.652Z,46.86
2023-05-09T18:48:51.524Z,46.99
2023-05-09T18:53:00.185Z,47.44
2023-05-09T18:57:11.904Z,48.03
2023-05-09T19:01:19.728Z,48.49
2023-05-09T19:05:29.121Z,48.68
2023-05-09T19:09:37.598Z,49.09
2023-05-09T19:13:49.766Z,49.55
2023-05-09T19:17:57.712Z,50.10
2023-05-09T19:22:07.749Z,50.53
2023-05-09T19:26:16.253Z,50.68
2023-05-09T19:30:25.062Z,51.15
2023-05-09T19:34:33.695Z,51.50
2023-05-09T19:38:41.510Z,51.77
2023-05-09T19:42:49.789Z,51.73
2023-05-09T19:47:00.949Z,52.01
2023-05-09T19:51:12.420Z,52.34
2023-05-09T19:55:20.520Z,52.66
2023-05-09T19:59:28.666Z,52.63
2023-05-09T20:03:38.943Z,52.83
2023-05-09T20:07:46.908Z,52.98
2023-05-09T20:11:56.253Z,53.09
2023-05-09T20:16:04.562Z,53.15
2023-05-09T20:20:14.433Z,53.17
2023-05-09T20:24:22.458Z,53.31
2023-05-09T20:28:30.731Z,53.06
2023-05-09T20:32:38.445Z,53.12
2023-05-09T20:36:52.054Z,53.31
2023-05-09T20:41:00.196Z,53.59
2023-05-09T20:45:09.392Z,53.82
2023-05-09T20:49:17.264Z,53.84
2023-05-09T20:53:27.521Z,53.80
2023-05-09T20:57:36.425Z,54.05
2023-05-09T21:01:44.629Z,54.34
2023-05-09T21:05:52.686Z,54.62
2023-05-09T21:10:02.316Z,54.77
2023-05-09T21:14:11.996Z,54.98
2023-05-09T21:18:20.523Z,54.95
2023-05-09T21:22:28.618Z,55.28
2023-05-09T21:26:36.805Z,55.21
2023-05-09T21:30:44.719Z,55.21
2023-05-09T21:34:52.676Z,55.71
2023-05-09T21:39:07.510Z,56.14
2023-05-09T21:43:18.361Z,56.16
2023-05-09T21:47:26.790Z,56.36
2023-05-09T21:51:35.405Z,56.36
2023-05-09T21:55:44.582Z,56.85
2023-05-09T21:59:53.533Z,56.77
2023-05-09T22:04:02.751Z,57.09
2023-05-09T22:08:10.907Z,57.46
2023-05-09T22:12:18.716Z,57.72
2023-05-09T22:16:27.639Z,57.69
2023-05-09T22:20:35.453Z,58.09
2023-05-09T22:24:45.215Z,58.17
2023-05-09T22:28:53.179Z,58.47
2023-05-09T22:33:03.176Z,58.53
2023-05-09T22:37:10.860Z,58.65
2023-05-09T22:41:18.520Z,59.13
2023-05-09T22:45:27.093Z,58.97
2023-05-09T22:49:35.618Z,59.59
2023-05-09T22:53:43.360Z,59.70
2023-05-09T22:57:51.267Z,59.74
2023-05-09T23:01:59.964Z,60.29
2023-05-09T23:06:08.700Z,60.45
2023-05-09T23:10:17.110Z,60.73
2023-05-09T23:14:25.336Z,60.64
2023-05-09T23:18:32.948Z,60.89
2023-05-09T23:22:40.687Z,60.77
2023-05-09T23:26:48.463Z,61.10
2023-05-09T23:30:56.566Z,61.51
2023-05-09T23:35:04.810Z,61.45
2023-05-09T23:39:12.825Z,61.81
2023-05-09T23:43:20.308Z,62.02
2023-05-09T23:47:27.751Z,62.27
2023-05-09T23:51:35.438Z,62.41
2023-05-09T23:55:43.428Z,62.64
2023-05-09T23:59:51.376Z,63.05
